KONL/ONL METAR and TAF weather

Enter ICAO airport designator
Station Type Date Time Source
KONL METAR 2019/04/25 01:55 UTC NOAA

KONL 250155Z AUTO 18003KT 10SM CLR 20/08 A2974 RMK AO2 T01960083


Station Type Date Time Source
KONL Decoded METAR 2019/04/25 01:55 UTC NOAA

O'Neill / Baker Field, NE, United States (KONL) 42-28N 098-41W
Apr 24, 2019 - 09:55 PM EDT / 2019.04.25 0155 UTC
Wind: from the S (180 degrees) at 3 MPH (3 KT):0
Visibility: 10 mile(s):0
Sky conditions: clear
Temperature: 67.3 F (19.6 C)
Dew Point: 46.9 F (8.3 C)
Relative Humidity: 47%
Pressure (altimeter): 29.74 in. Hg (1007 hPa)
ob: KONL 250155Z AUTO 18003KT 10SM CLR 20/08 A2974 RMK AO2 T01960083
cycle: 2

Station Type Date Time Source
KONL TAF UTC NOAA

Error!

Example: see airport list